createdAt,value
2018-08-19T00:03:19.410Z,22.54
2018-08-19T00:05:48.709Z,22.56
2018-08-19T00:08:18.074Z,22.57
2018-08-19T00:10:59.585Z,22.56
2018-08-19T00:13:28.630Z,22.49
2018-08-19T00:15:57.706Z,22.47
2018-08-19T00:18:26.822Z,22.47
2018-08-19T00:20:56.390Z,22.44
2018-08-19T00:23:25.654Z,22.43
2018-08-19T00:25:54.574Z,22.37
2018-08-19T00:28:23.782Z,22.32
2018-08-19T00:30:53.040Z,22.28
2018-08-19T00:33:22.321Z,22.26
2018-08-19T00:35:51.228Z,22.30
2018-08-19T00:38:20.382Z,22.26
2018-08-19T00:40:49.399Z,22.18
2018-08-19T00:43:18.617Z,22.08
2018-08-19T00:45:47.830Z,22.11
2018-08-19T00:48:16.655Z,22.12
2018-08-19T00:50:45.834Z,22.11
2018-08-19T00:53:14.666Z,22.03
2018-08-19T00:55:48.806Z,22.03
2018-08-19T00:58:19.119Z,22.03
2018-08-19T01:00:48.144Z,22.02
2018-08-19T01:03:17.226Z,21.99
2018-08-19T01:05:46.321Z,21.93
2018-08-19T01:08:15.929Z,21.90
2018-08-19T01:10:45.120Z,21.75
2018-08-19T01:13:14.553Z,21.74
2018-08-19T01:15:43.634Z,21.91
2018-08-19T01:18:12.805Z,21.91
2018-08-19T01:20:41.951Z,21.84
2018-08-19T01:23:10.908Z,21.90
2018-08-19T01:25:40.091Z,21.87
2018-08-19T01:28:09.103Z,21.86
2018-08-19T01:30:38.244Z,21.83
2018-08-19T01:33:07.518Z,21.80
2018-08-19T01:35:40.474Z,21.71
2018-08-19T01:38:09.588Z,21.65
2018-08-19T01:40:38.615Z,21.59
2018-08-19T01:43:08.254Z,21.51
2018-08-19T01:45:37.393Z,21.43
2018-08-19T01:48:06.409Z,21.39
2018-08-19T01:50:35.858Z,21.46
2018-08-19T01:53:05.067Z,21.51
2018-08-19T01:55:34.079Z,21.57
2018-08-19T01:58:03.252Z,21.57
2018-08-19T02:00:32.351Z,21.61
2018-08-19T02:03:05.694Z,21.58
2018-08-19T02:05:34.878Z,21.53
2018-08-19T02:08:04.935Z,21.57
2018-08-19T02:10:35.221Z,21.57
2018-08-19T02:13:04.387Z,21.60
2018-08-19T02:15:33.942Z,21.55
2018-08-19T02:18:06.410Z,21.48
2018-08-19T02:20:38.687Z,21.42
2018-08-19T02:23:10.236Z,21.43
2018-08-19T02:25:47.601Z,21.39
2018-08-19T02:28:21.254Z,21.46
2018-08-19T02:30:55.662Z,21.44
2018-08-19T02:33:24.646Z,21.42
2018-08-19T02:36:00.706Z,21.41
2018-08-19T02:38:30.128Z,21.39
2018-08-19T02:40:59.235Z,21.38
2018-08-19T02:43:28.497Z,21.39
2018-08-19T02:45:57.722Z,21.39
2018-08-19T02:48:45.615Z,21.39
2018-08-19T02:51:15.753Z,21.34
2018-08-19T02:53:45.954Z,21.32
2018-08-19T02:56:15.733Z,21.30
2018-08-19T02:58:45.666Z,21.28
2018-08-19T03:01:15.994Z,21.28
2018-08-19T03:03:44.963Z,21.24
2018-08-19T03:06:14.052Z,21.28
2018-08-19T03:08:48.590Z,21.30
2018-08-19T03:11:19.990Z,21.25
2018-08-19T03:13:49.461Z,21.23
2018-08-19T03:16:18.589Z,21.11
2018-08-19T03:18:49.778Z,21.20
2018-08-19T03:21:19.750Z,21.18
2018-08-19T03:23:51.495Z,21.17
2018-08-19T03:26:20.753Z,21.18
2018-08-19T03:28:49.890Z,21.13
2018-08-19T03:31:18.637Z,21.12
2018-08-19T03:33:47.625Z,21.16
2018-08-19T03:36:16.534Z,21.13
2018-08-19T03:38:45.687Z,21.19
2018-08-19T03:41:14.958Z,21.12
2018-08-19T03:43:48.966Z,21.10
2018-08-19T03:46:21.502Z,21.04
2018-08-19T03:48:50.780Z,21.01
2018-08-19T03:51:19.530Z,20.96
2018-08-19T03:53:48.630Z,20.90
2018-08-19T03:56:22.826Z,20.91
2018-08-19T03:58:53.364Z,20.95
2018-08-19T04:01:32.978Z,20.96
2018-08-19T04:04:02.042Z,20.93
2018-08-19T04:06:31.275Z,20.89
2018-08-19T04:09:00.334Z,20.88
2018-08-19T04:11:29.441Z,20.90
2018-08-19T04:13:58.474Z,20.94
2018-08-19T04:16:27.520Z,21.04
2018-08-19T04:19:07.857Z,21.09
2018-08-19T04:21:36.707Z,21.15
2018-08-19T04:24:05.914Z,21.21
2018-08-19T04:26:35.051Z,21.29
2018-08-19T04:29:10.678Z,21.38
2018-08-19T04:31:39.564Z,21.52
2018-08-19T04:34:08.781Z,21.57
2018-08-19T04:36:37.895Z,21.60
2018-08-19T04:39:07.017Z,21.69
2018-08-19T04:41:36.091Z,21.81
2018-08-19T04:44:05.354Z,21.85
2018-08-19T04:46:34.455Z,21.93
2018-08-19T04:49:03.520Z,22.06
2018-08-19T04:51:32.610Z,22.14
2018-08-19T04:54:04.975Z,22.19
2018-08-19T04:56:34.227Z,22.26
2018-08-19T04:59:03.407Z,22.31
2018-08-19T05:01:32.720Z,22.46
2018-08-19T05:04:01.562Z,22.57
2018-08-19T05:06:30.527Z,22.62
2018-08-19T05:08:59.809Z,22.71
2018-08-19T05:11:29.039Z,22.81
2018-08-19T05:13:59.759Z,22.92
2018-08-19T05:16:28.618Z,23.02
2018-08-19T05:19:02.529Z,23.10
2018-08-19T05:21:31.910Z,23.19
2018-08-19T05:24:01.124Z,23.27
2018-08-19T05:26:29.878Z,23.41
2018-08-19T05:29:10.179Z,23.52
2018-08-19T05:31:43.326Z,23.67
2018-08-19T05:34:18.657Z,23.74
2018-08-19T05:36:50.759Z,23.81
2018-08-19T05:39:19.846Z,23.90
2018-08-19T05:42:01.850Z,23.99
2018-08-19T05:44:34.820Z,24.09
2018-08-19T05:47:06.776Z,24.15
2018-08-19T05:49:38.196Z,24.20
2018-08-19T05:52:12.387Z,24.30
2018-08-19T05:54:46.473Z,24.32
2018-08-19T05:57:16.362Z,24.34
2018-08-19T05:59:46.398Z,24.43
2018-08-19T06:02:15.778Z,24.55
2018-08-19T06:04:45.110Z,24.63
2018-08-19T06:07:14.301Z,24.73
2018-08-19T06:09:43.190Z,24.88
2018-08-19T06:12:12.454Z,24.99
2018-08-19T06:14:41.418Z,25.10
2018-08-19T06:17:10.270Z,25.18
2018-08-19T06:19:39.487Z,25.23
2018-08-19T06:22:08.738Z,25.31
2018-08-19T06:24:37.969Z,25.48
2018-08-19T06:27:07.140Z,25.48
2018-08-19T06:29:46.020Z,25.53
2018-08-19T06:32:22.251Z,25.65
2018-08-19T06:34:52.531Z,25.78
2018-08-19T06:37:22.267Z,25.89
2018-08-19T06:39:52.404Z,26.00
2018-08-19T06:42:22.376Z,26.07
2018-08-19T06:44:51.782Z,26.19
2018-08-19T06:47:20.884Z,26.30
2018-08-19T06:49:52.921Z,26.33
2018-08-19T06:52:22.755Z,26.40
2018-08-19T06:54:51.701Z,26.50
2018-08-19T06:57:21.039Z,26.57
2018-08-19T06:59:50.260Z,26.65
2018-08-19T07:02:21.558Z,26.78
2018-08-19T07:04:50.790Z,26.79
2018-08-19T07:07:20.471Z,26.83
2018-08-19T07:09:49.609Z,26.92
2018-08-19T07:12:22.628Z,27.00
2018-08-19T07:14:51.927Z,27.15
2018-08-19T07:17:22.004Z,27.22
2018-08-19T07:19:51.147Z,27.30
2018-08-19T07:22:21.517Z,27.38
2018-08-19T07:24:50.618Z,27.47
2018-08-19T07:27:19.766Z,27.58
2018-08-19T07:29:48.538Z,27.63
2018-08-19T07:32:17.838Z,27.72
2018-08-19T07:34:46.879Z,27.82
2018-08-19T07:37:15.992Z,27.84
2018-08-19T07:39:50.260Z,27.90
2018-08-19T07:42:19.006Z,27.99
2018-08-19T07:44:47.989Z,28.11
2018-08-19T07:47:16.777Z,28.19
2018-08-19T07:49:45.848Z,28.24
2018-08-19T07:52:15.003Z,28.25
2018-08-19T07:54:44.046Z,28.31
2018-08-19T07:57:23.639Z,28.37
2018-08-19T07:59:52.791Z,28.46
2018-08-19T08:02:22.787Z,28.55
2018-08-19T08:04:51.970Z,28.64
2018-08-19T08:07:20.958Z,28.72
2018-08-19T08:09:49.974Z,28.76
2018-08-19T08:12:19.094Z,28.87
2018-08-19T08:14:53.143Z,28.95
2018-08-19T08:17:23.307Z,28.96
2018-08-19T08:19:57.418Z,29.04
2018-08-19T08:22:29.446Z,29.12
2018-08-19T08:24:59.066Z,29.22
2018-08-19T08:27:28.415Z,29.37
2018-08-19T08:29:57.719Z,29.71
2018-08-19T08:32:26.674Z,30.33
2018-08-19T08:34:55.750Z,31.01
2018-08-19T08:37:24.956Z,31.65
2018-08-19T08:40:00.766Z,32.41
2018-08-19T08:42:40.015Z,33.23
2018-08-19T08:45:09.834Z,34.28
2018-08-19T08:47:38.953Z,35.36
2018-08-19T08:50:08.871Z,36.35
2018-08-19T08:52:37.799Z,37.30
2018-08-19T08:55:09.204Z,38.35
2018-08-19T08:57:39.098Z,39.29
2018-08-19T09:00:09.602Z,40.13
2018-08-19T09:02:38.470Z,40.89
2018-08-19T09:05:09.519Z,41.41
2018-08-19T09:07:38.802Z,41.27
2018-08-19T09:10:07.814Z,41.37
2018-08-19T09:12:49.563Z,41.83
2018-08-19T09:15:18.843Z,41.70
2018-08-19T09:17:48.063Z,41.91
2018-08-19T09:20:17.385Z,42.02
2018-08-19T09:22:47.274Z,42.17
2018-08-19T09:25:16.451Z,42.47
2018-08-19T09:27:45.530Z,42.94
2018-08-19T09:30:23.923Z,42.49
2018-08-19T09:33:00.716Z,40.56
2018-08-19T09:35:31.059Z,40.78
2018-08-19T09:38:12.079Z,41.48
2018-08-19T09:40:41.683Z,41.97
2018-08-19T09:43:10.932Z,42.61
2018-08-19T09:45:39.926Z,43.47
2018-08-19T09:48:09.550Z,43.73
2018-08-19T09:50:39.507Z,44.33
2018-08-19T09:53:08.499Z,44.85
2018-08-19T09:55:42.952Z,45.68
2018-08-19T09:58:14.350Z,46.47
2018-08-19T10:00:48.580Z,45.85
2018-08-19T10:03:17.970Z,46.51
2018-08-19T10:05:47.283Z,46.96
2018-08-19T10:08:16.555Z,46.70
2018-08-19T10:10:45.736Z,46.51
2018-08-19T10:13:16.179Z,47.59
2018-08-19T10:15:45.342Z,48.95
2018-08-19T10:18:14.199Z,49.17
2018-08-19T10:20:43.191Z,48.47
2018-08-19T10:23:12.331Z,48.93
2018-08-19T10:25:41.231Z,49.56
2018-08-19T10:28:10.426Z,50.22
2018-08-19T10:30:46.453Z,49.92
2018-08-19T10:33:15.726Z,49.03
2018-08-19T10:35:44.595Z,48.99
2018-08-19T10:38:15.862Z,48.06
2018-08-19T10:40:52.454Z,46.75
2018-08-19T10:43:21.847Z,46.34
2018-08-19T10:45:50.938Z,45.80
2018-08-19T10:48:19.967Z,46.37
2018-08-19T10:50:49.215Z,45.67
2018-08-19T10:53:23.386Z,46.71
2018-08-19T10:55:52.602Z,48.02
2018-08-19T10:58:21.721Z,49.22
2018-08-19T11:00:52.088Z,50.55
2018-08-19T11:03:21.556Z,51.04
2018-08-19T11:05:52.151Z,50.83
2018-08-19T11:08:21.200Z,49.13
2018-08-19T11:10:50.442Z,49.44
2018-08-19T11:13:20.909Z,50.47
2018-08-19T11:15:53.085Z,50.40
2018-08-19T11:18:25.531Z,50.66
2018-08-19T11:20:58.361Z,50.41
2018-08-19T11:23:28.215Z,50.72
2018-08-19T11:25:57.975Z,50.36
2018-08-19T11:28:34.427Z,50.10
2018-08-19T11:31:03.348Z,50.88
2018-08-19T11:33:38.126Z,50.94
2018-08-19T11:36:07.373Z,50.04
2018-08-19T11:38:36.720Z,47.72
2018-08-19T11:41:07.020Z,47.95
2018-08-19T11:43:38.938Z,47.76
2018-08-19T11:46:08.576Z,48.57
2018-08-19T11:48:38.130Z,49.24
2018-08-19T11:51:06.975Z,49.60
2018-08-19T11:53:36.324Z,48.92
2018-08-19T11:56:05.377Z,47.88
2018-08-19T11:58:40.098Z,46.37
2018-08-19T12:01:13.753Z,45.54
2018-08-19T12:04:00.711Z,43.82
2018-08-19T12:06:31.085Z,44.17
2018-08-19T12:09:02.624Z,44.29
2018-08-19T12:11:33.074Z,44.91
2018-08-19T12:14:04.339Z,45.59
2018-08-19T12:16:41.291Z,45.64
2018-08-19T12:19:15.426Z,45.84
2018-08-19T12:21:49.622Z,46.29
2018-08-19T12:24:25.641Z,46.18
2018-08-19T12:26:56.324Z,45.80
2018-08-19T12:29:27.268Z,45.40
2018-08-19T12:32:02.482Z,45.11
2018-08-19T12:34:32.135Z,46.26
2018-08-19T12:37:01.274Z,47.14
2018-08-19T12:39:30.430Z,46.24
2018-08-19T12:41:59.749Z,45.87
2018-08-19T12:44:29.226Z,46.28
2018-08-19T12:47:06.930Z,46.98
2018-08-19T12:49:40.973Z,47.98
2018-08-19T12:52:11.461Z,48.83
2018-08-19T12:54:40.262Z,49.16
2018-08-19T12:57:09.418Z,49.51
2018-08-19T12:59:38.618Z,48.98
2018-08-19T13:02:07.789Z,48.61
2018-08-19T13:04:36.799Z,47.03
2018-08-19T13:07:11.270Z,45.63
2018-08-19T13:09:40.547Z,45.43
2018-08-19T13:12:11.030Z,45.85
2018-08-19T13:14:40.283Z,46.20
2018-08-19T13:17:09.259Z,46.11
2018-08-19T13:19:38.401Z,46.63
2018-08-19T13:22:07.174Z,45.99
2018-08-19T13:24:37.263Z,44.50
2018-08-19T13:27:06.832Z,42.86
2018-08-19T13:29:36.703Z,41.65
2018-08-19T13:32:05.960Z,40.18
2018-08-19T13:34:35.045Z,38.81
2018-08-19T13:37:04.202Z,37.61
2018-08-19T13:39:33.554Z,35.59
2018-08-19T13:42:02.642Z,34.34
2018-08-19T13:44:31.751Z,33.25
2018-08-19T13:47:00.707Z,32.19
2018-08-19T13:49:30.091Z,31.73
2018-08-19T13:52:02.247Z,31.53
2018-08-19T13:54:31.123Z,31.35
2018-08-19T13:57:00.294Z,31.06
2018-08-19T13:59:29.097Z,30.91
2018-08-19T14:01:58.238Z,30.79
2018-08-19T14:04:27.553Z,30.59
2018-08-19T14:06:56.919Z,30.23
2018-08-19T14:09:25.768Z,30.39
2018-08-19T14:11:54.729Z,30.46
2018-08-19T14:14:23.751Z,30.56
2018-08-19T14:16:52.997Z,30.68
2018-08-19T14:19:22.039Z,31.17
2018-08-19T14:21:51.231Z,31.52
2018-08-19T14:24:20.371Z,31.53
2018-08-19T14:26:49.487Z,31.67
2018-08-19T14:29:18.170Z,31.68
2018-08-19T14:31:47.287Z,31.72
2018-08-19T14:34:16.484Z,31.81
2018-08-19T14:36:45.825Z,31.82
2018-08-19T14:39:15.074Z,31.94
2018-08-19T14:41:44.352Z,32.04
2018-08-19T14:44:13.507Z,32.04
2018-08-19T14:46:42.583Z,32.00
2018-08-19T14:49:11.542Z,31.90
2018-08-19T14:52:01.659Z,31.95
2018-08-19T14:54:30.758Z,31.79
2018-08-19T14:57:00.159Z,31.67
2018-08-19T14:59:29.226Z,31.36
2018-08-19T15:01:58.558Z,31.35
2018-08-19T15:04:27.490Z,31.37
2018-08-19T15:06:57.280Z,31.27
2018-08-19T15:09:35.597Z,31.24
2018-08-19T15:12:11.609Z,31.18
2018-08-19T15:14:40.812Z,31.19
2018-08-19T15:17:10.908Z,31.26
2018-08-19T15:19:45.971Z,31.37
2018-08-19T15:22:15.366Z,31.48
2018-08-19T15:24:44.250Z,31.50
2018-08-19T15:27:13.169Z,31.63
2018-08-19T15:29:43.954Z,31.60
2018-08-19T15:32:13.397Z,31.59
2018-08-19T15:34:42.276Z,31.55
2018-08-19T15:37:11.403Z,31.56
2018-08-19T15:39:40.757Z,31.58
2018-08-19T15:42:10.035Z,31.51
2018-08-19T15:44:39.279Z,31.44
2018-08-19T15:47:08.179Z,30.89
2018-08-19T15:49:37.250Z,30.23
2018-08-19T15:52:06.417Z,30.02
2018-08-19T15:54:35.279Z,29.83
2018-08-19T15:57:04.834Z,29.77
2018-08-19T15:59:37.646Z,29.73
2018-08-19T16:02:06.767Z,29.52
2018-08-19T16:04:36.051Z,29.25
2018-08-19T16:07:05.202Z,29.06
2018-08-19T16:09:34.454Z,28.85
2018-08-19T16:12:03.793Z,28.61
2018-08-19T16:14:33.354Z,28.50
2018-08-19T16:17:03.306Z,28.40
2018-08-19T16:19:32.107Z,28.38
2018-08-19T16:22:01.309Z,28.21
2018-08-19T16:24:30.288Z,28.01
2018-08-19T16:26:59.336Z,27.65
2018-08-19T16:29:28.666Z,27.81
2018-08-19T16:31:57.519Z,27.98
2018-08-19T16:34:26.779Z,27.76
2018-08-19T16:36:55.763Z,27.83
2018-08-19T16:39:24.746Z,27.54
2018-08-19T16:41:53.848Z,27.82
2018-08-19T16:44:23.043Z,27.91
2018-08-19T16:46:51.728Z,27.97
2018-08-19T16:49:20.815Z,28.09
2018-08-19T16:51:50.038Z,28.02
2018-08-19T16:54:18.804Z,28.09
2018-08-19T16:56:47.643Z,28.03
2018-08-19T16:59:16.843Z,28.18
2018-08-19T17:01:45.959Z,28.14
2018-08-19T17:04:14.950Z,28.01
2018-08-19T17:06:43.794Z,27.98
2018-08-19T17:09:12.925Z,28.10
2018-08-19T17:11:42.157Z,27.98
2018-08-19T17:14:11.306Z,27.66
2018-08-19T17:16:40.670Z,27.76
2018-08-19T17:19:09.697Z,27.88
2018-08-19T17:21:38.943Z,27.74
2018-08-19T17:24:08.088Z,27.56
2018-08-19T17:26:37.419Z,27.46
2018-08-19T17:29:11.383Z,27.30
2018-08-19T17:31:40.515Z,27.13
2018-08-19T17:34:21.518Z,27.04
2018-08-19T17:36:50.377Z,26.93
2018-08-19T17:39:22.051Z,26.91
2018-08-19T17:41:52.494Z,26.73
2018-08-19T17:44:22.231Z,26.66
2018-08-19T17:46:54.182Z,26.66
2018-08-19T17:49:28.206Z,26.70
2018-08-19T17:51:58.998Z,26.63
2018-08-19T17:54:29.224Z,26.56
2018-08-19T17:56:59.820Z,26.49
2018-08-19T17:59:29.118Z,26.39
2018-08-19T18:01:57.828Z,26.31
2018-08-19T18:04:48.267Z,26.11
2018-08-19T18:07:20.867Z,26.31
2018-08-19T18:09:55.076Z,26.40
2018-08-19T18:12:24.211Z,26.51
2018-08-19T18:14:53.201Z,26.73
2018-08-19T18:17:22.358Z,26.82
2018-08-19T18:19:51.863Z,26.81
2018-08-19T18:22:21.979Z,27.00
2018-08-19T18:24:56.170Z,27.05
2018-08-19T18:27:25.379Z,26.96
2018-08-19T18:29:54.913Z,27.04
2018-08-19T18:32:24.738Z,27.09
2018-08-19T18:34:54.320Z,27.14
2018-08-19T18:37:23.511Z,27.12
2018-08-19T18:39:52.752Z,27.17
2018-08-19T18:42:34.754Z,27.09
2018-08-19T18:45:08.947Z,27.16
2018-08-19T18:47:47.804Z,27.23
2018-08-19T18:50:17.071Z,27.20
2018-08-19T18:52:46.331Z,27.07
2018-08-19T18:55:15.680Z,27.08
2018-08-19T18:57:55.261Z,27.19
2018-08-19T19:00:26.094Z,27.29
2018-08-19T19:02:59.454Z,27.29
2018-08-19T19:05:32.958Z,27.17
2018-08-19T19:08:08.045Z,27.23
2018-08-19T19:10:37.724Z,27.22
2018-08-19T19:13:07.163Z,27.20
2018-08-19T19:15:40.316Z,27.34
2018-08-19T19:18:12.230Z,27.38
2018-08-19T19:21:14.668Z,27.28
2018-08-19T19:23:44.877Z,27.23
2018-08-19T19:26:14.174Z,27.23
2018-08-19T19:28:43.267Z,27.25
2018-08-19T19:31:15.178Z,27.22
2018-08-19T19:33:44.481Z,27.02
2018-08-19T19:36:18.704Z,26.87
2018-08-19T19:38:53.045Z,27.12
2018-08-19T19:41:28.523Z,27.12
2018-08-19T19:43:57.760Z,26.94
2018-08-19T19:46:26.804Z,27.00
2018-08-19T19:48:56.079Z,26.96
2018-08-19T19:51:25.327Z,26.92
2018-08-19T19:53:54.405Z,26.81
2018-08-19T19:56:23.249Z,26.93
2018-08-19T19:58:52.300Z,26.76
2018-08-19T20:01:21.916Z,26.89
2018-08-19T20:03:56.027Z,26.80
2018-08-19T20:06:25.611Z,26.81
2018-08-19T20:08:55.006Z,26.85
2018-08-19T20:11:30.227Z,26.87
2018-08-19T20:14:01.114Z,26.75
2018-08-19T20:16:30.318Z,26.73
2018-08-19T20:18:59.489Z,26.72
2018-08-19T20:21:29.692Z,26.76
2018-08-19T20:23:59.647Z,26.83
2018-08-19T20:26:28.558Z,26.74
2018-08-19T20:28:59.843Z,26.70
2018-08-19T20:31:29.052Z,26.66
2018-08-19T20:33:58.440Z,26.55
2018-08-19T20:36:27.661Z,26.44
2018-08-19T20:38:56.743Z,26.34
2018-08-19T20:41:25.957Z,26.38
2018-08-19T20:43:55.162Z,26.11
2018-08-19T20:46:24.423Z,26.00
2018-08-19T20:48:53.619Z,25.92
2018-08-19T20:51:22.816Z,25.70
2018-08-19T20:53:52.045Z,25.66
2018-08-19T20:56:21.294Z,25.52
2018-08-19T20:58:50.449Z,25.38
2018-08-19T21:01:24.527Z,25.30
2018-08-19T21:03:53.623Z,25.20
2018-08-19T21:06:22.778Z,25.29
2018-08-19T21:08:51.876Z,25.20
2018-08-19T21:11:20.660Z,25.15
2018-08-19T21:13:49.507Z,25.05
2018-08-19T21:16:18.755Z,24.98
2018-08-19T21:18:47.788Z,24.91
2018-08-19T21:21:16.726Z,24.77
2018-08-19T21:23:45.974Z,24.75
2018-08-19T21:26:14.819Z,24.67
2018-08-19T21:28:48.890Z,24.51
2018-08-19T21:31:18.190Z,24.37
2018-08-19T21:33:47.333Z,24.38
2018-08-19T21:36:16.679Z,24.38
2018-08-19T21:38:45.779Z,24.35
2018-08-19T21:41:14.787Z,24.41
2018-08-19T21:43:43.618Z,24.32
2018-08-19T21:46:12.914Z,24.26
2018-08-19T21:48:42.142Z,24.22
2018-08-19T21:51:11.178Z,24.11
2018-08-19T21:53:40.034Z,24.00
2018-08-19T21:56:08.783Z,23.85
2018-08-19T21:58:37.720Z,23.77
2018-08-19T22:01:12.081Z,23.94
2018-08-19T22:03:46.298Z,23.96
2018-08-19T22:06:15.415Z,23.87
2018-08-19T22:08:44.739Z,23.85
2018-08-19T22:11:13.487Z,23.88
2018-08-19T22:13:42.742Z,23.83
2018-08-19T22:16:11.626Z,23.76
2018-08-19T22:18:40.884Z,23.74
2018-08-19T22:21:17.737Z,23.70
2018-08-19T22:23:47.797Z,23.76
2018-08-19T22:26:17.879Z,23.77
2018-08-19T22:28:51.387Z,23.88
2018-08-19T22:31:25.598Z,23.68
2018-08-19T22:33:56.158Z,23.58
2018-08-19T22:36:25.021Z,23.17
2018-08-19T22:38:54.774Z,23.37
2018-08-19T22:41:25.226Z,23.53
2018-08-19T22:43:55.054Z,23.43
2018-08-19T22:46:24.665Z,23.43
2018-08-19T22:48:54.610Z,23.43
2018-08-19T22:51:23.685Z,23.42
2018-08-19T22:53:54.606Z,23.36
2018-08-19T22:56:24.017Z,23.36
2018-08-19T22:58:53.288Z,23.38
2018-08-19T23:01:22.814Z,23.53
2018-08-19T23:03:58.919Z,23.42
2018-08-19T23:06:28.351Z,23.28
2018-08-19T23:08:57.548Z,23.23
2018-08-19T23:11:35.267Z,23.23
2018-08-19T23:14:15.637Z,23.22
2018-08-19T23:16:44.764Z,23.26
2018-08-19T23:19:13.903Z,23.23
2018-08-19T23:21:43.122Z,23.14
2018-08-19T23:24:12.286Z,23.13
2018-08-19T23:26:41.470Z,23.02
2018-08-19T23:29:10.743Z,22.93
2018-08-19T23:31:39.534Z,22.93
2018-08-19T23:34:08.386Z,22.90
2018-08-19T23:36:37.416Z,22.83
2018-08-19T23:39:08.562Z,22.79
2018-08-19T23:41:37.826Z,22.73
2018-08-19T23:44:07.091Z,22.70
2018-08-19T23:46:36.562Z,22.70
2018-08-19T23:49:05.679Z,22.72
2018-08-19T23:51:34.633Z,22.78
2018-08-19T23:54:04.322Z,22.77
2018-08-19T23:56:33.255Z,22.72
2018-08-19T23:59:02.715Z,22.64
